Terminal Aerodrome Forecast
Issued by NWS

Home | Current Version | Previous Version | Text Only | Print | Product List | Glossary On
Versions: 1 2 3 4 5 6 7 8 9 10 11 12 13 14 15
000
FTUS46 KHNX 222325
TAFBFL
TAF
KBFL 222325Z 2300/2324 33006KT P6SM OVC035
     FM230300 VRB03KT 4SM BR SCT005 BKN025
     FM231000 VRB03KT 2SM BR OVC005
     FM231900 VRB03KT 4SM BR SCT005 BKN025=

USA.gov is the U.S. government's official web portal to all federal, state and local government web resources and services.